Time;durP1;ratioP1;P1;durP2;ratioP2;P2;SDS_P1;SDS_P2;PMS_P1;PMS_P2;Temp;Humidity;BMP_temperature;BMP_pressure;BME280_temperature;BME280_humidity;BME280_pressure;Samples;Min_cycle;Max_cycle;Signal;HPM_P1;HPM_P2
2023/07/07 00:00:04;;;;;;;4.43;1.50;;;;;;;11.38;100.00;101451.72;4935963;29;20290;-71
2023/07/07 00:02:32;;;;;;;1.67;1.55;;;;;;;11.28;100.00;101450.94;4935946;28;20094;-72
2023/07/07 00:04:58;;;;;;;2.00;1.73;;;;;;;11.28;100.00;101437.56;4939446;28;20039;-72
2023/07/07 00:07:23;;;;;;;4.20;1.97;;;;;;;11.27;100.00;101457.28;4942411;29;20023;-71
2023/07/07 00:09:49;;;;;;;3.17;1.83;;;;;;;11.20;100.00;101446.34;4935484;29;20508;-72
2023/07/07 00:12:16;;;;;;;3.13;1.52;;;;;;;11.16;100.00;101450.28;4936698;28;20442;-72
2023/07/07 00:14:42;;;;;;;4.00;1.30;;;;;;;11.14;100.00;101441.63;4940616;28;20039;-72
2023/07/07 00:17:09;;;;;;;2.38;1.83;;;;;;;11.08;100.00;101423.50;4932304;29;20046;-72
2023/07/07 00:19:34;;;;;;;2.25;1.70;;;;;;;11.10;100.00;101450.91;4937654;28;20580;-72
2023/07/07 00:22:01;;;;;;;2.88;1.85;;;;;;;11.08;100.00;101447.53;4935432;29;20027;-72
2023/07/07 00:24:27;;;;;;;2.85;1.50;;;;;;;11.08;100.00;101449.38;4937461;28;20074;-71
2023/07/07 00:26:52;;;;;;;2.63;1.77;;;;;;;11.09;100.00;101472.44;4937599;28;20061;-72
2023/07/07 00:29:17;;;;;;;2.93;1.67;;;;;;;11.04;100.00;101485.41;4939099;28;20379;-72
2023/07/07 00:31:43;;;;;;;3.40;1.53;;;;;;;10.98;100.00;101482.31;4932006;28;20027;-71
2023/07/07 00:34:08;;;;;;;2.93;1.47;;;;;;;10.94;100.00;101480.09;4942736;29;20039;-72
2023/07/07 00:36:34;;;;;;;2.60;1.70;;;;;;;10.94;100.00;101488.94;4923240;29;20536;-72
2023/07/07 00:38:59;;;;;;;5.07;1.87;;;;;;;10.87;100.00;101487.84;4931656;28;20501;-72
2023/07/07 00:41:24;;;;;;;8.13;2.40;;;;;;;10.85;100.00;101484.47;4939383;29;20676;-74
2023/07/07 00:44:08;;;;;;;5.40;2.33;;;;;;;10.83;100.00;101475.78;4948438;28;20039;-74
2023/07/07 00:46:36;;;;;;;5.00;1.60;;;;;;;10.82;100.00;101463.41;4943278;28;20035;-73
2023/07/07 00:49:04;;;;;;;2.17;1.67;;;;;;;10.76;100.00;101472.84;4942341;28;20027;-72
2023/07/07 00:51:38;;;;;;;3.63;2.00;;;;;;;10.76;100.00;101496.88;4942799;29;20027;-71
2023/07/07 00:54:14;;;;;;;7.97;2.60;;;;;;;10.73;100.00;101501.69;4943582;29;20027;-74
2023/07/07 00:56:49;;;;;;;2.55;2.00;;;;;;;10.72;100.00;101499.97;4925634;29;20053;-74
2023/07/07 00:59:22;;;;;;;2.83;2.17;;;;;;;10.69;100.00;101511.78;4939468;28;20038;-73
2023/07/07 01:01:53;;;;;;;2.90;2.03;;;;;;;10.68;100.00;101519.97;4939714;28;20071;-73
2023/07/07 01:04:18;;;;;;;5.07;2.08;;;;;;;10.65;100.00;101518.44;4941938;29;20036;-72
2023/07/07 01:06:55;;;;;;;2.33;2.13;;;;;;;10.64;100.00;101527.41;4939955;29;20029;-72
2023/07/07 01:09:21;;;;;;;2.55;1.60;;;;;;;10.54;100.00;101502.56;4939981;29;20136;-74
2023/07/07 01:11:47;;;;;;;2.13;1.90;;;;;;;10.54;100.00;101503.41;4946271;28;20150;-74
2023/07/07 01:14:17;;;;;;;2.35;2.03;;;;;;;10.55;100.00;101518.44;4939622;29;20038;-72
2023/07/07 01:17:02;;;;;;;2.85;2.20;;;;;;;10.47;100.00;101510.31;4940384;28;20039;-73
2023/07/07 01:19:36;;;;;;;4.38;2.08;;;;;;;10.48;100.00;101516.47;4929892;29;20046;-74
2023/07/07 01:22:35;;;;;;;2.63;2.10;;;;;;;10.48;100.00;101532.50;4935064;28;20055;-74
2023/07/07 01:25:00;;;;;;;4.40;2.25;;;;;;;10.47;100.00;101534.34;4955824;28;20039;-72
2023/07/07 01:27:47;;;;;;;2.67;2.17;;;;;;;10.48;100.00;101549.34;4944899;28;20023;-72
2023/07/07 01:30:46;;;;;;;6.82;2.65;;;;;;;10.41;100.00;101534.91;4943560;28;20035;-74
2023/07/07 01:33:19;;;;;;;3.53;2.22;;;;;;;10.39;100.00;101531.53;4945154;29;20028;-74
2023/07/07 01:35:45;;;;;;;3.67;2.40;;;;;;;10.38;100.00;101535.19;4941135;28;20066;-73
2023/07/07 01:38:29;;;;;;;4.05;3.15;;;;;;;10.35;100.00;101543.50;4945386;29;20063;-73
2023/07/07 01:41:16;;;;;;;3.92;2.45;;;;;;;10.34;100.00;101539.94;4927944;29;20046;-73
2023/07/07 01:43:50;;;;;;;4.38;2.47;;;;;;;10.35;100.00;101551.50;4946453;29;20122;-73
2023/07/07 01:46:28;;;;;;;3.58;2.45;;;;;;;10.35;100.00;101548.81;4942559;28;20683;-73
2023/07/07 01:49:10;;;;;;;4.07;2.28;;;;;;;10.38;100.00;101561.03;4935859;28;20114;-74
2023/07/07 01:51:45;;;;;;;3.40;2.63;;;;;;;10.31;100.00;101550.09;4939175;28;20090;-74
2023/07/07 01:54:13;;;;;;;3.47;2.65;;;;;;;10.31;100.00;101558.09;4942212;28;20086;-74
2023/07/07 01:56:41;;;;;;;4.07;2.70;;;;;;;10.30;100.00;101548.38;4928252;29;20035;-73
2023/07/07 01:59:06;;;;;;;5.38;3.20;;;;;;;10.27;100.00;101548.63;4937102;28;20027;-74
2023/07/07 02:01:32;;;;;;;3.97;2.85;;;;;;;10.26;100.00;101552.31;4930546;29;20461;-73
2023/07/07 02:03:57;;;;;;;5.32;3.20;;;;;;;10.25;100.00;101550.59;4937557;29;20059;-74
2023/07/07 02:06:23;;;;;;;3.93;3.53;;;;;;;10.22;100.00;101556.22;4936290;28;20028;-72
2023/07/07 02:08:48;;;;;;;3.80;2.90;;;;;;;10.17;100.00;101551.31;4930785;29;20055;-71
2023/07/07 02:11:14;;;;;;;3.70;2.83;;;;;;;10.12;100.00;101554.41;4940209;29;20031;-74
2023/07/07 02:13:40;;;;;;;3.75;3.15;;;;;;;10.13;100.00;101557.91;4935653;28;20054;-72
2023/07/07 02:16:07;;;;;;;5.20;3.00;;;;;;;10.13;100.00;101558.75;4952252;28;20165;-71
2023/07/07 02:18:37;;;;;;;4.75;3.20;;;;;;;10.09;100.00;101562.69;4939160;28;20030;-71
2023/07/07 02:21:04;;;;;;;4.20;3.35;;;;;;;10.10;100.00;101564.38;4934529;28;20510;-74
2023/07/07 02:23:30;;;;;;;6.65;3.10;;;;;;;10.12;100.00;101573.09;4936497;28;20023;-74
2023/07/07 02:25:55;;;;;;;6.10;2.78;;;;;;;10.09;100.00;101560.03;4944127;29;20031;-74
2023/07/07 02:28:21;;;;;;;5.03;3.17;;;;;;;10.06;100.00;101560.28;4944370;29;20146;-74
2023/07/07 02:30:46;;;;;;;3.73;3.03;;;;;;;10.04;100.00;101562.25;4941390;28;20097;-73
2023/07/07 02:33:11;;;;;;;4.40;3.97;;;;;;;10.04;100.00;101556.06;4941925;28;20042;-74
2023/07/07 02:35:39;;;;;;;4.10;3.30;;;;;;;10.03;100.00;101565.91;4935041;28;20095;-74
2023/07/07 02:38:04;;;;;;;5.65;3.67;;;;;;;10.03;100.00;101565.91;4936203;28;20066;-73
2023/07/07 02:40:29;;;;;;;4.57;3.47;;;;;;;10.03;100.00;101573.06;4944571;29;20035;-74
2023/07/07 02:42:55;;;;;;;7.50;3.87;;;;;;;10.04;100.00;101578.25;4933745;29;20036;-74
2023/07/07 02:45:20;;;;;;;5.50;3.60;;;;;;;10.03;100.00;101573.91;4941953;29;20043;-74
2023/07/07 02:47:46;;;;;;;;;;;;;;;10.08;100.00;101585.00;4944442;29;20058;-73
2023/07/07 02:50:12;;;;;;;;;;;;;;;10.06;100.00;101589.63;4941781;29;20329;-71
2023/07/07 02:52:37;;;;;;;11.47;4.53;;;;;;;10.02;100.00;101590.03;4940443;28;19914;-73
2023/07/07 02:55:02;;;;;;;6.33;3.97;;;;;;;9.97;100.00;101579.78;4936628;29;20040;-71
2023/07/07 02:57:28;;;;;;;6.10;3.60;;;;;;;9.94;100.00;101580.91;4941490;29;20118;-71
2023/07/07 02:59:53;;;;;;;5.53;4.03;;;;;;;9.92;100.00;101577.53;4941108;28;20661;-71
2023/07/07 03:02:19;;;;;;;5.20;3.77;;;;;;;9.89;100.00;101588.50;4943557;29;20030;-73
2023/07/07 03:04:47;;;;;;;6.60;4.07;;;;;;;9.91;100.00;101585.69;4941546;28;20754;-74
2023/07/07 03:07:13;;;;;;;4.82;3.80;;;;;;;9.91;100.00;101583.03;4939135;29;20323;-74
2023/07/07 03:09:38;;;;;;;7.57;4.30;;;;;;;9.91;100.00;101596.38;4933731;28;20366;-73
2023/07/07 03:12:04;;;;;;;7.15;4.55;;;;;;;9.95;100.00;101603.13;4956327;28;20019;-74
2023/07/07 03:14:30;;;;;;;5.60;4.63;;;;;;;9.98;100.00;101596.66;4934880;28;20374;-74
2023/07/07 03:16:57;;;;;;;6.80;4.30;;;;;;;10.01;100.00;101601.72;4939058;29;20754;-74
2023/07/07 03:19:28;;;;;;;5.55;3.90;;;;;;;10.04;100.00;101612.94;4935621;29;20031;-74
2023/07/07 03:22:20;;;;;;;8.07;4.60;;;;;;;10.07;100.00;101617.19;4936024;28;20040;-74
2023/07/07 03:24:51;;;;;;;8.32;4.93;;;;;;;10.08;100.00;101618.84;4934693;28;20032;-73
2023/07/07 03:27:28;;;;;;;6.13;4.20;;;;;;;10.10;100.00;101616.91;4934035;28;20032;-74
2023/07/07 03:29:53;;;;;;;7.22;4.68;;;;;;;10.17;100.00;101614.53;4934341;29;20405;-73
2023/07/07 03:32:21;;;;;;;8.35;5.30;;;;;;;10.19;100.00;101620.56;4940269;29;20027;-74
2023/07/07 03:34:49;;;;;;;4.90;4.18;;;;;;;10.25;100.00;101620.00;4931894;28;20531;-73
2023/07/07 03:37:17;;;;;;;5.55;3.72;;;;;;;10.28;100.00;101611.72;4939213;29;20038;-73
2023/07/07 03:39:42;;;;;;;8.23;5.23;;;;;;;10.34;100.00;101619.19;4936760;28;20568;-73
2023/07/07 03:42:08;;;;;;;7.97;4.23;;;;;;;10.39;100.00;101618.78;4938820;28;20035;-74
2023/07/07 03:44:35;;;;;;;7.25;5.45;;;;;;;10.44;100.00;101617.38;4925744;29;20043;-74
2023/07/07 03:47:01;;;;;;;7.95;5.75;;;;;;;10.50;100.00;101624.81;4952084;28;20027;-74
2023/07/07 03:49:26;;;;;;;6.07;4.55;;;;;;;10.50;100.00;101624.81;4939845;28;20039;-73
2023/07/07 03:51:52;;;;;;;7.23;4.37;;;;;;;10.56;100.00;101632.28;4948851;28;20081;-73
2023/07/07 03:54:17;;;;;;;5.50;4.03;;;;;;;10.59;100.00;101624.97;4929648;29;20117;-73
2023/07/07 03:56:43;;;;;;;9.80;4.70;;;;;;;10.66;100.00;101631.44;4926610;29;20046;-73
2023/07/07 03:59:09;;;;;;;6.40;4.50;;;;;;;10.73;100.00;101630.72;4937955;29;20445;-74
2023/07/07 04:01:34;;;;;;;10.90;5.37;;;;;;;10.82;100.00;101636.22;4922686;29;20093;-74
2023/07/07 04:04:00;;;;;;;7.63;4.43;;;;;;;10.88;100.00;101633.78;4934279;28;20735;-73
2023/07/07 04:06:25;;;;;;;5.53;4.23;;;;;;;10.94;100.00;101630.56;4942449;29;20589;-73
2023/07/07 04:08:51;;;;;;;6.23;4.23;;;;;;;11.10;100.00;101643.31;4935089;28;20893;-73
2023/07/07 04:11:19;;;;;;;5.90;3.80;;;;;;;11.20;100.00;101645.97;4938642;29;20031;-73
2023/07/07 04:13:47;;;;;;;5.70;4.43;;;;;;;11.34;100.00;101650.84;4936979;29;20063;-73
2023/07/07 04:16:21;;;;;;;8.15;5.45;;;;;;;11.48;100.00;101646.03;4938492;29;20127;-74
2023/07/07 04:18:51;;;;;;;7.55;5.22;;;;;;;11.60;100.00;101653.72;4936751;28;20039;-74
2023/07/07 04:21:23;;;;;;;9.35;6.00;;;;;;;11.76;100.00;101655.75;4940101;28;20031;-74
2023/07/07 04:23:53;;;;;;;8.80;5.18;;;;;;;11.98;100.00;101659.88;4941370;29;20043;-73
2023/07/07 04:26:20;;;;;;;10.15;6.10;;;;;;;12.17;100.00;101658.94;4948829;28;20031;-72
2023/07/07 04:28:47;;;;;;;11.52;7.05;;;;;;;12.34;100.00;101649.25;4941565;28;20118;-71
2023/07/07 04:31:13;;;;;;;6.28;4.10;;;;;;;12.45;100.00;101635.66;4946314;29;20047;-72
2023/07/07 04:33:39;;;;;;;8.77;5.47;;;;;;;12.61;100.00;101624.22;4943151;28;20039;-72
2023/07/07 04:36:08;;;;;;;7.15;5.30;;;;;;;12.75;100.00;101617.47;4927225;29;20027;-72
2023/07/07 04:38:34;;;;;;;8.05;6.00;;;;;;;12.91;100.00;101614.06;4939465;28;20038;-72
2023/07/07 04:41:12;;;;;;;9.35;4.88;;;;;;;13.10;100.00;101603.13;4944016;29;20032;-72
2023/07/07 04:43:43;;;;;;;6.05;4.95;;;;;;;13.27;100.00;101589.81;4943637;28;20260;-74
2023/07/07 04:46:11;;;;;;;10.70;4.63;;;;;;;13.36;100.00;101578.16;4956923;28;20043;-72
2023/07/07 04:48:36;;;;;;;6.50;4.50;;;;;;;13.46;100.00;101560.13;4943380;28;20031;-72
2023/07/07 04:51:08;;;;;;;6.32;4.07;;;;;;;13.62;100.00;101548.59;4942466;28;20098;-72
2023/07/07 04:53:35;;;;;;;5.28;4.10;;;;;;;13.80;100.00;101523.50;4941059;29;20114;-72
2023/07/07 04:56:02;;;;;;;9.55;5.07;;;;;;;13.78;100.00;101491.44;4942601;29;20031;-72
2023/07/07 04:58:28;;;;;;;9.60;4.50;;;;;;;13.86;100.00;101453.91;4944240;28;20039;-72
2023/07/07 05:01:05;;;;;;;5.63;4.07;;;;;;;13.85;100.00;101430.72;4941827;29;20035;-72
2023/07/07 05:03:31;;;;;;;11.50;4.93;;;;;;;14.08;100.00;101443.50;4936641;29;20035;-72
2023/07/07 05:05:57;;;;;;;6.57;4.03;;;;;;;14.30;100.00;101415.91;4943003;29;20409;-72
2023/07/07 05:08:22;;;;;;;8.23;4.80;;;;;;;14.39;100.00;101367.56;4945735;29;20528;-72
2023/07/07 05:10:48;;;;;;;7.10;3.63;;;;;;;14.55;100.00;101364.84;4938529;28;20043;-72
2023/07/07 05:13:13;;;;;;;6.50;4.07;;;;;;;14.87;100.00;101355.00;4937052;29;20039;-72
2023/07/07 05:15:38;;;;;;;6.17;3.93;;;;;;;14.84;100.00;101301.56;4937107;29;20330;-72
2023/07/07 05:18:04;;;;;;;5.67;3.80;;;;;;;14.96;100.00;101267.88;4943787;28;20028;-72
2023/07/07 05:20:30;;;;;;;8.60;3.63;;;;;;;15.12;100.00;101266.91;4943567;28;20031;-72
2023/07/07 05:22:55;;;;;;;4.78;3.50;;;;;;;15.34;100.00;101267.94;4956984;28;20444;-72
2023/07/07 05:25:21;;;;;;;4.55;4.13;;;;;;;15.50;100.00;101238.19;4947766;29;20732;-72
2023/07/07 05:27:46;;;;;;;6.93;3.60;;;;;;;15.72;100.00;101241.03;4941416;29;20094;-72
2023/07/07 05:30:12;;;;;;;5.77;3.23;;;;;;;16.07;100.00;101223.31;4942784;28;20027;-72
2023/07/07 05:32:37;;;;;;;12.38;3.55;;;;;;;16.36;100.00;101156.91;4941021;28;20502;-72
2023/07/07 05:35:03;;;;;;;8.63;3.80;;;;;;;16.57;100.00;101099.50;4943240;29;20035;-72
2023/07/07 05:37:28;;;;;;;5.63;3.42;;;;;;;17.04;100.00;101057.59;4943364;29;20035;-72
2023/07/07 05:39:53;;;;;;;6.87;3.60;;;;;;;17.35;100.00;100908.75;4952781;28;20122;-72
2023/07/07 05:42:19;;;;;;;8.30;3.23;;;;;;;17.84;100.00;100863.56;4964455;23;20078;-85
2023/07/07 05:44:44;;;;;;;9.03;3.30;;;;;;;18.48;100.00;100849.34;4955487;28;20771;-85
2023/07/07 05:47:09;;;;;;;6.20;2.70;;;;;;;19.31;100.00;100864.00;4957799;28;20227;-83
2023/07/07 05:49:35;;;;;;;4.10;2.73;;;;;;;20.02;100.00;100697.63;4942477;28;20030;-85
2023/07/07 05:52:00;;;;;;;6.67;2.50;;;;;;;20.96;100.00;100518.13;4947461;28;20039;-80
2023/07/07 05:54:26;;;;;;;6.83;2.77;;;;;;;21.62;99.94;100391.88;4957074;28;20027;-83
2023/07/07 05:56:54;;;;;;;7.50;2.57;;;;;;;20.60;95.15;100072.50;4980144;28;20307;-83
2023/07/07 05:59:19;;;;;;;6.70;2.50;;;;;;;21.03;98.09;100508.78;4968209;28;20018;-85
2023/07/07 06:01:44;;;;;;;5.20;2.90;;;;;;;21.71;92.18;100387.69;4970481;28;20042;-85
2023/07/07 06:04:10;;;;;;;10.67;2.60;;;;;;;21.49;88.78;100240.94;4948613;28;20281;-83
2023/07/07 06:06:35;;;;;;;5.33;2.67;;;;;;;21.12;88.65;100292.13;4965368;28;20035;-82
2023/07/07 06:09:01;;;;;;;7.10;2.57;;;;;;;21.76;88.56;100492.94;4969618;28;20115;-82
2023/07/07 06:11:26;;;;;;;6.67;3.03;;;;;;;22.23;84.73;100394.84;4967549;28;20765;-84
2023/07/07 06:13:51;;;;;;;7.37;2.50;;;;;;;21.88;82.47;100260.00;4943862;28;20095;-85
2023/07/07 06:16:17;;;;;;;6.10;2.57;;;;;;;20.32;85.34;100247.66;4963403;28;20031;-84
2023/07/07 06:18:43;;;;;;;;;;;;;;;20.50;88.05;100549.53;4972963;28;20026;-82
2023/07/07 06:21:08;;;;;;;3.42;2.47;;;;;;;20.85;85.29;100501.59;4972842;28;19914;-84
2023/07/07 06:23:33;;;;;;;8.07;3.00;;;;;;;19.73;88.56;100564.56;4944960;29;20065;-85
2023/07/07 06:25:59;;;;;;;4.10;2.00;;;;;;;20.66;86.85;100619.41;4945042;28;20046;-85
2023/07/07 06:28:25;;;;;;;2.67;2.15;;;;;;;21.43;84.89;100670.97;4962004;28;20043;-85
2023/07/07 06:30:51;;;;;;;4.63;2.65;;;;;;;21.38;81.48;100407.44;4952697;28;20047;-81
2023/07/07 06:33:18;;;;;;;8.35;2.33;;;;;;;20.78;81.66;100353.56;4941391;28;20110;-86
2023/07/07 06:35:44;;;;;;;4.50;2.38;;;;;;;20.14;83.93;100468.13;4939567;28;20625;-83
2023/07/07 06:38:09;;;;;;;4.78;2.60;;;;;;;20.69;84.14;100648.78;4969460;28;20035;-85
2023/07/07 06:40:35;;;;;;;4.95;2.25;;;;;;;21.06;81.54;100532.72;4976260;28;20051;-84
2023/07/07 06:43:01;;;;;;;3.73;1.90;;;;;;;21.31;81.93;100661.97;4983208;28;20049;-82
2023/07/07 06:45:28;;;;;;;5.43;2.90;;;;;;;21.54;81.00;100682.91;4942801;28;20289;-85
2023/07/07 06:47:54;;;;;;;4.67;2.40;;;;;;;22.65;77.69;100627.53;4983645;28;20102;-86
2023/07/07 06:50:40;;;;;;;4.68;2.70;;;;;;;22.94;76.37;100596.47;4965790;28;20716;-85
2023/07/07 06:53:05;;;;;;;2.20;1.75;;;;;;;23.54;74.39;100602.25;4967503;28;20452;-83
2023/07/07 06:55:31;;;;;;;4.73;2.10;;;;;;;24.12;76.02;100859.88;4950796;28;20269;-84
2023/07/07 06:57:56;;;;;;;4.55;1.60;;;;;;;23.39;72.46;100393.13;4963640;28;20042;-85
2023/07/07 07:00:22;;;;;;;3.97;1.88;;;;;;;23.38;72.03;100429.59;4963017;28;20649;-84
2023/07/07 07:02:47;;;;;;;4.18;2.45;;;;;;;24.28;70.89;100571.78;4943993;28;20133;-85
2023/07/07 07:05:13;;;;;;;6.15;2.15;;;;;;;24.96;65.69;100238.13;4959286;28;20397;-83
2023/07/07 07:07:38;;;;;;;3.75;2.25;;;;;;;24.09;66.60;100148.66;4953682;28;20063;-85
2023/07/07 07:10:05;;;;;;;4.60;2.15;;;;;;;23.97;65.62;100060.81;4951305;28;20030;-84
2023/07/07 07:12:31;;;;;;;4.75;2.30;;;;;;;22.93;66.23;99914.31;4957546;28;20039;-81
2023/07/07 07:14:56;;;;;;;5.45;2.28;;;;;;;24.00;65.88;100281.13;4947150;28;20026;-85
2023/07/07 07:17:23;;;;;;;4.72;2.13;;;;;;;23.90;65.05;100175.53;4955079;28;20126;-84
2023/07/07 07:19:48;;;;;;;3.15;1.70;;;;;;;24.07;65.84;100291.78;4956933;28;20028;-85
2023/07/07 07:22:14;;;;;;;4.60;2.03;;;;;;;24.51;65.84;100442.38;4955859;28;20042;-85
2023/07/07 07:24:39;;;;;;;3.58;1.77;;;;;;;25.14;64.02;100439.72;4933354;29;20031;-84
2023/07/07 07:27:05;;;;;;;3.90;2.40;;;;;;;25.40;62.54;100350.53;4945183;28;20046;-85
2023/07/07 07:29:31;;;;;;;3.63;1.55;;;;;;;25.66;61.50;100301.31;4940433;29;20314;-82
2023/07/07 07:31:56;;;;;;;3.92;1.92;;;;;;;25.69;60.96;100263.34;4938969;28;20050;-85
2023/07/07 07:34:32;;;;;;;4.53;2.30;;;;;;;23.07;62.42;99724.16;4949012;28;20048;-83
2023/07/07 07:36:59;;;;;;;5.50;2.33;;;;;;;23.59;63.12;100000.16;4957152;28;20315;-84
2023/07/07 07:39:25;;;;;;;3.90;2.20;;;;;;;24.61;63.46;100420.66;4962174;28;20027;-84
2023/07/07 07:41:51;;;;;;;;;;;;;;;25.44;61.97;100433.59;4955533;28;20047;-82
2023/07/07 07:44:18;;;;;;;4.00;2.35;;;;;;;25.26;61.61;100290.13;4947150;28;19910;-86
2023/07/07 07:46:45;;;;;;;5.07;1.98;;;;;;;25.73;60.77;100329.25;4941313;28;20039;-82
2023/07/07 07:49:11;;;;;;;3.90;2.08;;;;;;;25.74;60.78;100360.94;4964753;28;20027;-85
2023/07/07 07:51:38;;;;;;;3.22;2.20;;;;;;;24.46;61.54;100057.63;4941662;29;20043;-85
2023/07/07 07:54:06;;;;;;;4.43;2.28;;;;;;;24.80;60.85;100128.94;4955851;28;20023;-84
2023/07/07 07:56:31;;;;;;;5.72;2.30;;;;;;;24.56;60.60;100024.09;4940255;29;20043;-85
2023/07/07 07:58:56;;;;;;;4.93;2.10;;;;;;;24.02;60.91;99966.22;4941365;28;20134;-85
2023/07/07 08:01:22;;;;;;;5.57;2.20;;;;;;;24.13;61.41;100053.50;4962747;28;20042;-83
2023/07/07 08:03:47;;;;;;;12.77;2.53;;;;;;;23.97;62.60;100165.22;4939343;28;20275;-85
2023/07/07 08:06:12;;;;;;;6.53;2.60;;;;;;;23.60;62.19;100062.56;4948590;28;20054;-85
2023/07/07 08:08:38;;;;;;;6.97;2.50;;;;;;;24.28;62.12;100236.28;4956217;28;20031;-85
2023/07/07 08:11:03;;;;;;;6.63;2.43;;;;;;;24.59;62.13;100372.88;4944554;28;20050;-85
2023/07/07 08:13:28;;;;;;;2.60;2.20;;;;;;;24.60;61.92;100367.13;4949228;29;20271;-84
2023/07/07 08:15:54;;;;;;;4.93;2.40;;;;;;;24.28;59.78;99928.06;4959535;28;20040;-85
2023/07/07 08:18:19;;;;;;;6.17;2.50;;;;;;;24.27;60.21;100043.69;4966770;28;20341;-86
2023/07/07 08:20:48;;;;;;;4.32;2.25;;;;;;;23.55;60.79;99871.84;4963464;28;20392;-83
2023/07/07 08:23:13;;;;;;;5.55;2.55;;;;;;;24.14;60.93;100131.47;4957178;28;20027;-84
2023/07/07 08:25:38;;;;;;;3.90;2.30;;;;;;;24.65;60.40;100240.78;4938895;29;20042;-85
2023/07/07 08:28:04;;;;;;;5.43;2.40;;;;;;;24.76;58.64;100017.84;4985117;28;20332;-83
2023/07/07 08:30:30;;;;;;;6.17;2.10;;;;;;;24.46;58.95;99929.41;4959450;28;20094;-84
2023/07/07 08:32:55;;;;;;;3.67;1.95;;;;;;;24.15;57.31;99620.50;4941754;28;20035;-82
2023/07/07 08:35:21;;;;;;;6.73;2.53;;;;;;;24.75;56.58;99817.78;4948895;28;20042;-83
2023/07/07 08:37:46;;;;;;;2.42;1.75;;;;;;;25.72;55.90;100067.88;4944724;28;20032;-83
2023/07/07 08:40:22;;;;;;;5.63;3.00;;;;;;;25.66;56.06;100047.97;4967802;28;20142;-83
2023/07/07 08:42:47;;;;;;;7.18;2.45;;;;;;;25.50;56.81;100087.38;4947025;28;20283;-84
2023/07/07 08:45:18;;;;;;;3.58;1.88;;;;;;;25.88;54.47;99896.41;4958647;28;20023;-84
2023/07/07 08:48:11;;;;;;;4.22;2.45;;;;;;;25.72;54.61;99875.72;4945881;28;20031;-82
2023/07/07 08:50:51;;;;;;;8.50;2.55;;;;;;;26.40;53.39;99944.13;4959864;28;20035;-83
2023/07/07 08:54:01;;;;;;;4.05;1.98;;;;;;;24.99;53.67;99454.00;4944755;28;20056;-82
2023/07/07 08:56:38;;;;;;;8.10;1.73;;;;;;;25.81;54.44;99962.31;4947960;28;20051;-83
2023/07/07 08:59:15;;;;;;;6.32;2.35;;;;;;;26.09;53.22;99886.94;4963465;28;20031;-82
2023/07/07 09:01:59;;;;;;;3.28;2.00;;;;;;;26.32;53.66;99964.72;4959383;28;20117;-83
2023/07/07 09:04:34;;;;;;;4.63;2.80;;;;;;;24.11;53.51;99210.47;4954007;28;20059;-81
2023/07/07 09:07:40;;;;;;;5.90;2.33;;;;;;;25.37;55.44;100005.97;4940817;28;20183;-84
2023/07/07 09:10:11;;;;;;;3.78;1.85;;;;;;;25.61;53.39;99788.31;4952455;28;20050;-83
2023/07/07 09:12:52;;;;;;;6.03;2.40;;;;;;;24.69;53.34;99453.19;4945212;28;20137;-82
2023/07/07 09:15:21;;;;;;;3.72;2.00;;;;;;;24.81;54.80;99717.56;4953794;28;20066;-83
2023/07/07 09:17:51;;;;;;;7.57;2.90;;;;;;;23.21;55.14;99247.19;4953916;28;20118;-83
2023/07/07 09:20:19;;;;;;;9.27;3.15;;;;;;;24.36;55.49;99769.31;4960272;28;20112;-82
2023/07/07 09:22:53;;;;;;;5.10;2.75;;;;;;;25.18;53.02;99661.66;4946797;28;20034;-83
2023/07/07 09:25:37;;;;;;;5.45;2.40;;;;;;;25.74;54.74;100130.47;4942630;28;20035;-84
2023/07/07 09:28:07;;;;;;;4.35;2.08;;;;;;;26.45;52.73;100086.38;4958761;28;20917;-81
2023/07/07 09:30:59;;;;;;;4.95;2.08;;;;;;;26.64;53.33;100225.34;4939377;29;20058;-83
2023/07/07 09:33:25;;;;;;;4.00;1.90;;;;;;;25.97;49.89;99386.09;4948581;28;20043;-84
2023/07/07 09:35:58;;;;;;;4.07;2.03;;;;;;;26.30;51.05;99739.84;4937050;28;20517;-81
2023/07/07 09:38:44;;;;;;;5.10;1.92;;;;;;;27.27;51.55;100175.34;4941408;28;20066;-83
2023/07/07 09:41:15;;;;;;;5.45;2.15;;;;;;;26.57;49.85;99601.59;4956324;28;20134;-82
2023/07/07 09:44:17;;;;;;;2.53;1.83;;;;;;;26.61;52.02;99974.88;4937208;28;20050;-82
2023/07/07 09:47:00;;;;;;;7.45;2.30;;;;;;;27.24;48.87;99701.91;4967660;28;20565;-84
2023/07/07 09:49:35;;;;;;;6.25;2.42;;;;;;;27.16;49.52;99667.78;4951770;28;20050;-83
2023/07/07 09:52:31;;;;;;;3.35;2.10;;;;;;;25.67;49.30;99164.06;4971264;28;20405;-82
2023/07/07 09:54:59;;;;;;;4.55;1.90;;;;;;;26.48;51.92;99962.66;4952273;28;20058;-84
2023/07/07 09:57:41;;;;;;;4.80;2.03;;;;;;;27.05;47.20;99392.41;4938883;28;20023;-85
2023/07/07 10:00:14;;;;;;;2.53;2.10;;;;;;;27.73;46.36;99460.06;4949605;28;20042;-83
2023/07/07 10:02:40;;;;;;;4.13;2.75;;;;;;;27.98;46.74;99614.25;4946684;28;20379;-82
2023/07/07 10:05:07;;;;;;;3.78;2.13;;;;;;;28.49;45.49;99679.03;4937913;28;20073;-83
2023/07/07 10:07:39;;;;;;;4.97;2.25;;;;;;;27.16;44.49;98876.94;4947902;28;20058;-83
2023/07/07 10:10:07;;;;;;;4.43;2.15;;;;;;;26.76;46.87;99251.16;4951511;28;20039;-81
2023/07/07 10:12:32;;;;;;;3.45;2.20;;;;;;;27.31;46.60;99455.75;4948516;28;20424;-82
2023/07/07 10:14:57;;;;;;;6.55;2.35;;;;;;;28.09;46.04;99612.88;4940203;28;20039;-82
2023/07/07 10:17:49;;;;;;;2.90;1.80;;;;;;;28.75;47.66;100123.38;4954849;28;20030;-85
2023/07/07 10:20:15;;;;;;;8.80;2.25;;;;;;;28.39;45.00;99495.34;4948622;28;20027;-85
2023/07/07 10:22:40;;;;;;;5.32;2.83;;;;;;;27.90;46.17;99428.44;4948443;28;20035;-81
2023/07/07 10:25:05;;;;;;;;;;;;;;;27.98;44.70;99217.34;4933264;28;20158;-83
2023/07/07 10:27:31;;;;;;;2.83;2.13;;;;;;;28.73;45.90;99735.63;4934460;29;19921;-83
2023/07/07 10:29:59;;;;;;;;;;;;;;;27.59;46.02;99294.81;4933791;28;20506;-82
2023/07/07 10:32:26;;;;;;;6.72;2.50;;;;;;;28.83;44.83;99691.47;4937744;28;19919;-82
2023/07/07 10:34:54;;;;;;;5.07;2.13;;;;;;;29.08;43.79;99516.16;4931726;28;20058;-85
2023/07/07 10:37:22;;;;;;;4.15;2.38;;;;;;;28.67;43.44;99267.34;4950304;28;20026;-84
2023/07/07 10:39:55;;;;;;;4.28;2.00;;;;;;;29.28;43.98;99655.78;4927540;28;20086;-85
2023/07/07 10:42:25;;;;;;;3.65;2.10;;;;;;;28.94;41.75;99084.97;4954402;28;20038;-84
2023/07/07 10:44:52;;;;;;;6.32;2.13;;;;;;;29.41;42.81;99454.22;4946808;28;20086;-85
2023/07/07 10:47:26;;;;;;;6.05;2.20;;;;;;;28.63;41.82;98970.66;4957217;28;20572;-83
2023/07/07 10:49:52;;;;;;;7.35;2.63;;;;;;;29.00;42.50;99268.53;4947559;28;20046;-83
2023/07/07 10:52:30;;;;;;;3.15;2.28;;;;;;;29.63;42.14;99401.03;4942129;28;20018;-83
2023/07/07 10:55:18;;;;;;;3.25;2.13;;;;;;;29.49;41.72;99297.84;4948686;28;20078;-82
2023/07/07 10:58:07;;;;;;;5.65;2.35;;;;;;;28.95;39.77;98693.84;4948707;28;20692;-82
2023/07/07 11:00:39;;;;;;;5.30;3.35;;;;;;;28.62;40.38;98706.31;4936416;29;20042;-84
2023/07/07 11:03:17;;;;;;;5.18;2.13;;;;;;;28.72;41.27;98954.16;4949917;28;20093;-83
2023/07/07 11:05:56;;;;;;;4.50;2.67;;;;;;;28.85;39.70;98710.72;4948315;28;20047;-81
2023/07/07 11:08:52;;;;;;;4.20;1.85;;;;;;;29.60;40.06;99202.91;4952914;28;20093;-83
2023/07/07 11:11:35;;;;;;;3.42;2.00;;;;;;;29.67;39.75;99121.56;4951502;28;20428;-84
2023/07/07 11:14:13;;;;;;;4.93;2.67;;;;;;;29.93;40.81;99376.47;4928704;28;20046;-83
2023/07/07 11:17:01;;;;;;;3.28;1.77;;;;;;;29.64;39.57;98997.63;4949940;28;20185;-83
2023/07/07 11:19:36;;;;;;;5.78;2.75;;;;;;;29.07;40.36;98998.03;4947926;28;20035;-83
2023/07/07 11:22:09;;;;;;;4.55;2.00;;;;;;;28.92;37.75;98441.84;4949376;28;20052;-82
2023/07/07 11:25:07;;;;;;;5.88;2.58;;;;;;;29.48;38.48;98818.72;4952986;28;20101;-81
2023/07/07 11:27:48;;;;;;;4.57;2.70;;;;;;;28.61;39.98;98819.19;4946379;28;20039;-83
2023/07/07 11:30:38;;;;;;;5.32;2.40;;;;;;;28.56;40.11;98825.66;4963095;28;20466;-83
2023/07/07 11:33:31;;;;;;;5.78;2.22;;;;;;;29.78;39.89;99244.94;4952008;28;20057;-82
2023/07/07 11:36:03;;;;;;;3.08;2.13;;;;;;;29.52;39.29;99022.28;4945270;28;20066;-81